createdAt,value
2019-03-20T00:03:17.083Z,74.5
2019-03-20T00:08:17.058Z,74.6
2019-03-20T00:13:17.083Z,74.6
2019-03-20T00:18:17.048Z,74.7
2019-03-20T00:23:17.076Z,75.3
2019-03-20T00:28:17.039Z,74.8
2019-03-20T00:33:17.053Z,74.9
2019-03-20T00:38:17.045Z,74.9
2019-03-20T00:43:17.051Z,75
2019-03-20T00:48:17.046Z,74.9
2019-03-20T00:53:25.644Z,75
2019-03-20T00:58:25.611Z,75
2019-03-20T01:03:25.598Z,75
2019-03-20T01:08:25.602Z,75
2019-03-20T01:13:25.605Z,75.1
2019-03-20T01:18:25.582Z,75.1
2019-03-20T01:23:25.623Z,75.1
2019-03-20T01:28:25.575Z,75.1
2019-03-20T01:33:25.564Z,75.2
2019-03-20T01:38:25.570Z,75.2
2019-03-20T01:43:25.544Z,75.3
2019-03-20T01:48:25.591Z,75.5
2019-03-20T01:53:25.538Z,75.5
2019-03-20T01:58:25.543Z,75.6
2019-03-20T02:03:25.545Z,75.6
2019-03-20T02:08:25.527Z,75.4
2019-03-20T02:13:25.496Z,75.5
2019-03-20T02:18:25.523Z,75.4
2019-03-20T02:23:25.509Z,75.1
2019-03-20T02:28:25.536Z,74.7
2019-03-20T02:33:25.517Z,74.5
2019-03-20T02:38:25.512Z,74.3
2019-03-20T02:43:25.515Z,74.3
2019-03-20T02:48:25.501Z,74.1
2019-03-20T02:53:25.468Z,74
2019-03-20T02:58:25.507Z,74.6
2019-03-20T03:03:25.470Z,73.6
2019-03-20T03:08:25.498Z,73.5
2019-03-20T03:13:25.548Z,73.3
2019-03-20T03:18:25.442Z,73.2
2019-03-20T03:23:25.437Z,73.2
2019-03-20T03:28:25.478Z,73
2019-03-20T03:33:25.458Z,73.2
2019-03-20T03:38:25.461Z,73
2019-03-20T03:43:25.518Z,72.6
2019-03-20T03:48:25.449Z,72.4
2019-03-20T03:53:25.445Z,72.2
2019-03-20T03:58:25.547Z,72
2019-03-20T04:03:25.431Z,71.7
2019-03-20T04:08:25.388Z,71.5
2019-03-20T04:13:25.438Z,70.8
2019-03-20T04:18:25.425Z,70.7
2019-03-20T04:23:25.404Z,70.7
2019-03-20T04:28:25.370Z,71.3
2019-03-20T04:33:25.384Z,70.1
2019-03-20T04:38:25.406Z,69.7
2019-03-20T04:43:25.380Z,69.6
2019-03-20T04:48:25.342Z,69.5
2019-03-20T04:53:25.341Z,69.3
2019-03-20T04:58:25.355Z,69
2019-03-20T05:03:25.334Z,68.5
2019-03-20T05:08:25.339Z,68.3
2019-03-20T05:13:25.331Z,68.1
2019-03-20T05:18:25.368Z,67.6
2019-03-20T05:23:25.832Z,67.4
2019-03-20T05:28:25.355Z,67.4
2019-03-20T05:33:25.401Z,67.5
2019-03-20T05:38:25.279Z,67.4
2019-03-20T05:43:25.264Z,73.8
2019-03-20T05:48:25.279Z,69.4
2019-03-20T05:53:25.347Z,68.2
2019-03-20T05:58:25.308Z,67.1
2019-03-20T06:03:25.320Z,66.3
2019-03-20T06:08:25.313Z,65.7
2019-03-20T06:13:25.274Z,65.7
2019-03-20T06:18:25.267Z,64.4
2019-03-20T06:23:25.285Z,64.1
2019-03-20T06:28:25.253Z,63.8
2019-03-20T06:33:25.280Z,63.6
2019-03-20T06:38:25.267Z,63.3
2019-03-20T06:43:25.241Z,63.1
2019-03-20T06:48:25.194Z,62.9
2019-03-20T06:53:25.254Z,62.5
2019-03-20T06:58:25.200Z,62.1
2019-03-20T07:03:25.204Z,61.7
2019-03-20T07:08:25.213Z,61.7
2019-03-20T07:13:25.212Z,61.4
2019-03-20T07:18:25.219Z,61.2
2019-03-20T07:23:25.264Z,61
2019-03-20T07:28:25.171Z,61.3
2019-03-20T07:33:25.209Z,61.2
2019-03-20T07:38:25.192Z,61.2
2019-03-20T07:43:27.349Z,60.8
2019-03-20T07:48:25.187Z,60.7
2019-03-20T07:53:25.197Z,60.4
2019-03-20T07:58:25.147Z,60.2
2019-03-20T08:03:25.145Z,59.8
2019-03-20T08:08:25.149Z,59.7
2019-03-20T08:13:25.150Z,58.8
2019-03-20T08:18:25.110Z,58.1
2019-03-20T08:23:25.166Z,58.3
2019-03-20T08:28:25.164Z,58.5
2019-03-20T08:33:25.138Z,58.4
2019-03-20T08:38:25.116Z,58.3
2019-03-20T08:43:25.110Z,58
2019-03-20T08:48:25.104Z,57.6
2019-03-20T08:53:25.086Z,57.3
2019-03-20T08:58:25.115Z,57.1
2019-03-20T09:03:25.114Z,56.8
2019-03-20T09:08:30.198Z,56.5
2019-03-20T09:13:25.133Z,56.3
2019-03-20T09:18:25.074Z,56
2019-03-20T09:23:25.054Z,55.9
2019-03-20T09:28:25.086Z,55.7
2019-03-20T09:33:25.037Z,55
2019-03-20T09:38:25.065Z,54.6
2019-03-20T09:43:25.040Z,54.3
2019-03-20T09:48:25.020Z,54
2019-03-20T09:53:25.013Z,53.3
2019-03-20T09:58:25.082Z,53.2
2019-03-20T10:03:25.006Z,52.3
2019-03-20T10:08:24.994Z,52.1
2019-03-20T10:13:25.057Z,51.6
2019-03-20T10:18:25.015Z,51.1
2019-03-20T10:23:24.974Z,49.8
2019-03-20T10:28:25.022Z,50
2019-03-20T10:33:24.990Z,49.8
2019-03-20T10:38:24.976Z,49.6
2019-03-20T10:43:24.979Z,49.3
2019-03-20T10:48:24.981Z,48.9
2019-03-20T10:53:24.970Z,48.7
2019-03-20T10:58:24.984Z,48.4
2019-03-20T11:03:24.999Z,47.7
2019-03-20T11:08:24.988Z,47.7
2019-03-20T11:13:24.960Z,47.6
2019-03-20T11:18:24.995Z,47.1
2019-03-20T11:23:24.955Z,47.2
2019-03-20T11:28:24.975Z,47
2019-03-20T11:33:24.947Z,46.6
2019-03-20T11:38:24.931Z,46.1
2019-03-20T11:43:24.953Z,46.8
2019-03-20T11:53:30.370Z,45.8
2019-03-20T11:58:30.397Z,45.4
2019-03-20T12:03:30.428Z,46
2019-03-20T12:08:30.380Z,45.4
2019-03-20T12:13:30.384Z,45.4
2019-03-20T12:18:30.368Z,45.5
2019-03-20T12:23:30.353Z,45.1
2019-03-20T12:28:30.498Z,45.1
2019-03-20T12:33:30.378Z,44.2
2019-03-20T12:38:30.345Z,45.3
2019-03-20T12:43:30.360Z,45.3
2019-03-20T12:48:30.347Z,44
2019-03-20T12:53:30.396Z,44.2
2019-03-20T12:58:30.303Z,44.2
2019-03-20T13:03:31.117Z,39.8
2019-03-20T13:08:30.456Z,39.1
2019-03-20T13:20:30.530Z,41
2019-03-20T13:25:30.451Z,45.1
2019-03-20T13:30:30.474Z,41.5
2019-03-20T13:35:30.430Z,41.3
2019-03-20T13:40:30.392Z,39.6
2019-03-20T13:45:30.388Z,39.9
2019-03-20T13:50:30.368Z,40.1
2019-03-20T13:55:30.393Z,40.3
2019-03-20T14:00:30.399Z,40.4
2019-03-20T14:05:30.438Z,40.5
2019-03-20T14:10:30.359Z,40.8
2019-03-20T14:15:30.372Z,41
2019-03-20T14:20:30.337Z,41.2
2019-03-20T14:25:30.395Z,41.2
2019-03-20T14:30:30.352Z,41.4
2019-03-20T14:35:30.421Z,41.3
2019-03-20T14:40:37.575Z,41.6
2019-03-20T14:45:30.298Z,41.6
2019-03-20T14:50:30.382Z,41.9
2019-03-20T14:55:30.326Z,41.8
2019-03-20T15:00:30.303Z,41.9
2019-03-20T15:05:30.309Z,42.3
2019-03-20T15:10:30.345Z,42.3
2019-03-20T15:15:30.317Z,42.7
2019-03-20T15:20:30.307Z,42.4
2019-03-20T15:25:30.369Z,42.3
2019-03-20T15:30:30.288Z,42.4
2019-03-20T15:35:30.273Z,42.4
2019-03-20T15:40:30.338Z,42.5
2019-03-20T15:45:30.258Z,42.5
2019-03-20T15:50:30.284Z,42.5
2019-03-20T15:58:55.237Z,42.3
2019-03-20T16:03:55.234Z,42.4
2019-03-20T16:08:57.152Z,42.4
2019-03-20T16:13:55.201Z,42.5
2019-03-20T16:18:55.176Z,42.4
2019-03-20T16:23:55.191Z,42.7
2019-03-20T16:28:55.181Z,42.7
2019-03-20T16:33:55.173Z,42.9
2019-03-20T16:38:55.176Z,43
2019-03-20T16:43:55.173Z,42.9
2019-03-20T16:48:55.158Z,43.1
2019-03-20T16:53:55.156Z,43.1
2019-03-20T16:58:55.107Z,50.5
2019-03-20T17:03:55.147Z,47.6
2019-03-20T17:08:55.160Z,46.1
2019-03-20T17:13:55.147Z,45.4
2019-03-20T17:18:55.140Z,45
2019-03-20T17:23:55.102Z,44.6
2019-03-20T17:28:55.141Z,44.7
2019-03-20T17:33:55.098Z,44.5
2019-03-20T17:38:55.118Z,44.5
2019-03-20T17:43:55.151Z,44.2
2019-03-20T17:48:55.099Z,44.4
2019-03-20T17:53:55.126Z,44.3
2019-03-20T17:58:55.127Z,44.2
2019-03-20T18:03:55.068Z,44.2
2019-03-20T18:08:55.207Z,44.2
2019-03-20T18:13:55.055Z,44.1
2019-03-20T18:18:55.104Z,44.7
2019-03-20T18:23:55.071Z,44.1
2019-03-20T18:28:55.009Z,43.9
2019-03-20T18:33:55.026Z,44.6
2019-03-20T18:38:56.391Z,43.7
2019-03-20T18:43:55.041Z,43.6
2019-03-20T18:48:55.040Z,43.8
2019-03-20T18:53:55.184Z,43.6
2019-03-20T18:58:55.009Z,43.8
2019-03-20T19:03:55.753Z,43.7
2019-03-20T19:08:56.056Z,43.8
2019-03-20T19:13:55.812Z,43.7
2019-03-20T19:18:55.721Z,43.8
2019-03-20T19:23:55.738Z,43.9
2019-03-20T19:28:58.942Z,44.1
2019-03-20T19:33:59.676Z,44
2019-03-20T19:38:59.672Z,44.6
2019-03-20T19:43:59.680Z,44.1
2019-03-20T19:48:59.597Z,44.2
2019-03-20T19:53:59.637Z,44.1
2019-03-20T19:58:59.678Z,44.3
2019-03-20T20:04:00.448Z,44.2
2019-03-20T20:09:00.496Z,44.2
2019-03-20T20:14:00.403Z,44.2
2019-03-20T20:19:00.348Z,44.2
2019-03-20T20:24:00.392Z,44.1
2019-03-20T20:29:01.165Z,44.2
2019-03-20T20:34:01.210Z,43.9
2019-03-20T20:39:01.152Z,44
2019-03-20T20:44:01.180Z,43.4
2019-03-20T20:49:01.112Z,44.1
2019-03-20T20:54:01.188Z,44
2019-03-20T20:59:01.165Z,44.1
2019-03-20T21:04:01.106Z,44.1
2019-03-20T21:09:01.143Z,44
2019-03-20T21:14:01.133Z,44.1
2019-03-20T21:19:01.124Z,44.2
2019-03-20T21:24:01.087Z,44.1
2019-03-20T21:29:01.100Z,44.4
2019-03-20T21:34:01.092Z,44.4
2019-03-20T21:39:01.136Z,44.5
2019-03-20T21:44:01.115Z,44.8
2019-03-20T21:49:01.187Z,45
2019-03-20T21:54:01.168Z,45.1
2019-03-20T21:59:01.075Z,45.3
2019-03-20T22:04:01.084Z,45.5
2019-03-20T22:09:01.037Z,45.5
2019-03-20T22:14:01.010Z,45.5
2019-03-20T22:19:01.050Z,46.2
2019-03-20T22:24:01.009Z,45.6
2019-03-20T22:29:01.002Z,45
2019-03-20T22:34:01.043Z,44.7
2019-03-20T22:39:01.058Z,44.7
2019-03-20T22:44:01.033Z,45
2019-03-20T22:49:00.976Z,45.6
2019-03-20T22:54:01.002Z,45.8
2019-03-20T22:59:00.981Z,45.8
2019-03-20T23:04:00.979Z,45.9
2019-03-20T23:09:00.971Z,45.9
2019-03-20T23:14:00.963Z,45.9
2019-03-20T23:19:00.969Z,45.3
2019-03-20T23:24:00.987Z,45.9
2019-03-20T23:29:01.002Z,46.1
2019-03-20T23:34:00.952Z,46.3
2019-03-20T23:39:00.954Z,47.1
2019-03-20T23:44:00.995Z,46.6
2019-03-20T23:49:00.991Z,46.3
2019-03-20T23:54:00.937Z,46.8
2019-03-20T23:59:00.979Z,46.9
